sensor_id;sensor_type;location;lat;lon;timestamp;P1;durP1;ratioP1;P2;durP2;ratioP2
15082;SDS011;7640;53.116;6.878;2023-04-23T00:02:09;74.37;;;40.30;;
15082;SDS011;7640;53.116;6.878;2023-04-23T00:04:38;81.87;;;43.23;;
15082;SDS011;7640;53.116;6.878;2023-04-23T00:07:18;77.33;;;42.83;;
15082;SDS011;7640;53.116;6.878;2023-04-23T00:09:49;81.20;;;41.63;;
15082;SDS011;7640;53.116;6.878;2023-04-23T00:12:22;83.83;;;42.03;;
15082;SDS011;7640;53.116;6.878;2023-04-23T00:14:51;83.73;;;43.40;;
15082;SDS011;7640;53.116;6.878;2023-04-23T00:17:21;74.70;;;40.27;;
15082;SDS011;7640;53.116;6.878;2023-04-23T00:19:50;69.90;;;38.50;;
15082;SDS011;7640;53.116;6.878;2023-04-23T00:22:18;76.53;;;39.97;;
15082;SDS011;7640;53.116;6.878;2023-04-23T00:24:47;77.63;;;38.27;;
15082;SDS011;7640;53.116;6.878;2023-04-23T00:27:18;76.47;;;38.37;;
15082;SDS011;7640;53.116;6.878;2023-04-23T00:29:56;80.57;;;40.27;;
15082;SDS011;7640;53.116;6.878;2023-04-23T00:32:25;76.43;;;38.63;;
15082;SDS011;7640;53.116;6.878;2023-04-23T00:34:53;76.27;;;38.97;;
15082;SDS011;7640;53.116;6.878;2023-04-23T00:37:22;80.20;;;39.40;;
15082;SDS011;7640;53.116;6.878;2023-04-23T00:39:52;73.50;;;38.17;;
15082;SDS011;7640;53.116;6.878;2023-04-23T00:42:21;75.77;;;38.40;;
15082;SDS011;7640;53.116;6.878;2023-04-23T00:44:50;78.50;;;38.60;;
15082;SDS011;7640;53.116;6.878;2023-04-23T00:47:19;72.83;;;37.00;;
15082;SDS011;7640;53.116;6.878;2023-04-23T00:49:48;78.07;;;38.20;;
15082;SDS011;7640;53.116;6.878;2023-04-23T00:52:20;65.80;;;36.37;;
15082;SDS011;7640;53.116;6.878;2023-04-23T00:54:49;75.23;;;38.57;;
15082;SDS011;7640;53.116;6.878;2023-04-23T00:57:19;71.03;;;37.17;;
15082;SDS011;7640;53.116;6.878;2023-04-23T00:59:48;72.40;;;37.17;;
15082;SDS011;7640;53.116;6.878;2023-04-23T01:02:17;67.33;;;36.97;;
15082;SDS011;7640;53.116;6.878;2023-04-23T01:04:46;65.43;;;35.77;;
15082;SDS011;7640;53.116;6.878;2023-04-23T01:07:16;69.17;;;37.17;;
15082;SDS011;7640;53.116;6.878;2023-04-23T01:09:45;71.90;;;36.63;;
15082;SDS011;7640;53.116;6.878;2023-04-23T01:12:15;66.60;;;35.43;;
15082;SDS011;7640;53.116;6.878;2023-04-23T01:14:46;70.80;;;37.40;;
15082;SDS011;7640;53.116;6.878;2023-04-23T01:17:14;74.10;;;36.63;;
15082;SDS011;7640;53.116;6.878;2023-04-23T01:19:43;73.33;;;37.03;;
15082;SDS011;7640;53.116;6.878;2023-04-23T01:22:13;70.80;;;36.30;;
15082;SDS011;7640;53.116;6.878;2023-04-23T01:24:42;75.47;;;38.57;;
15082;SDS011;7640;53.116;6.878;2023-04-23T01:27:11;67.63;;;35.60;;
15082;SDS011;7640;53.116;6.878;2023-04-23T01:29:40;75.50;;;36.43;;
15082;SDS011;7640;53.116;6.878;2023-04-23T01:32:09;69.13;;;36.50;;
15082;SDS011;7640;53.116;6.878;2023-04-23T01:34:37;69.27;;;36.63;;
15082;SDS011;7640;53.116;6.878;2023-04-23T01:37:08;68.37;;;35.90;;
15082;SDS011;7640;53.116;6.878;2023-04-23T01:39:39;69.20;;;36.50;;
15082;SDS011;7640;53.116;6.878;2023-04-23T01:42:07;74.67;;;37.93;;
15082;SDS011;7640;53.116;6.878;2023-04-23T01:44:36;67.03;;;33.67;;
15082;SDS011;7640;53.116;6.878;2023-04-23T01:47:05;69.53;;;35.37;;
15082;SDS011;7640;53.116;6.878;2023-04-23T01:49:34;65.50;;;34.83;;
15082;SDS011;7640;53.116;6.878;2023-04-23T01:52:02;70.70;;;35.47;;
15082;SDS011;7640;53.116;6.878;2023-04-23T01:54:31;71.33;;;35.63;;
15082;SDS011;7640;53.116;6.878;2023-04-23T01:57:01;64.87;;;35.83;;
15082;SDS011;7640;53.116;6.878;2023-04-23T01:59:29;69.03;;;36.63;;
15082;SDS011;7640;53.116;6.878;2023-04-23T02:01:58;64.23;;;35.30;;
15082;SDS011;7640;53.116;6.878;2023-04-23T02:04:28;71.03;;;37.57;;
15082;SDS011;7640;53.116;6.878;2023-04-23T02:06:57;71.00;;;35.63;;
15082;SDS011;7640;53.116;6.878;2023-04-23T02:09:26;70.97;;;36.53;;
15082;SDS011;7640;53.116;6.878;2023-04-23T02:11:54;69.97;;;35.53;;
15082;SDS011;7640;53.116;6.878;2023-04-23T02:14:24;68.93;;;38.10;;
15082;SDS011;7640;53.116;6.878;2023-04-23T02:16:53;70.03;;;35.83;;
15082;SDS011;7640;53.116;6.878;2023-04-23T02:19:23;72.80;;;38.63;;
15082;SDS011;7640;53.116;6.878;2023-04-23T02:21:51;66.47;;;37.20;;
15082;SDS011;7640;53.116;6.878;2023-04-23T02:24:20;72.63;;;36.67;;
15082;SDS011;7640;53.116;6.878;2023-04-23T02:26:49;75.50;;;39.67;;
15082;SDS011;7640;53.116;6.878;2023-04-23T02:29:17;80.60;;;39.13;;
15082;SDS011;7640;53.116;6.878;2023-04-23T02:31:50;76.57;;;39.73;;
15082;SDS011;7640;53.116;6.878;2023-04-23T02:34:19;78.03;;;38.60;;
15082;SDS011;7640;53.116;6.878;2023-04-23T02:36:47;77.93;;;39.30;;
15082;SDS011;7640;53.116;6.878;2023-04-23T02:39:16;76.53;;;39.67;;
15082;SDS011;7640;53.116;6.878;2023-04-23T02:41:45;77.40;;;39.63;;
15082;SDS011;7640;53.116;6.878;2023-04-23T02:44:13;72.70;;;39.50;;
15082;SDS011;7640;53.116;6.878;2023-04-23T02:46:42;86.63;;;41.20;;
15082;SDS011;7640;53.116;6.878;2023-04-23T02:49:13;81.87;;;39.80;;
15082;SDS011;7640;53.116;6.878;2023-04-23T02:51:41;85.77;;;41.40;;
15082;SDS011;7640;53.116;6.878;2023-04-23T02:54:10;85.77;;;42.23;;
15082;SDS011;7640;53.116;6.878;2023-04-23T02:56:39;92.83;;;42.43;;
15082;SDS011;7640;53.116;6.878;2023-04-23T02:59:07;89.03;;;43.47;;
15082;SDS011;7640;53.116;6.878;2023-04-23T03:01:36;84.93;;;40.67;;
15082;SDS011;7640;53.116;6.878;2023-04-23T03:04:04;90.13;;;43.90;;
15082;SDS011;7640;53.116;6.878;2023-04-23T03:06:34;85.60;;;42.00;;
15082;SDS011;7640;53.116;6.878;2023-04-23T03:09:03;91.87;;;42.27;;
15082;SDS011;7640;53.116;6.878;2023-04-23T03:11:32;97.50;;;44.20;;
15082;SDS011;7640;53.116;6.878;2023-04-23T03:14:00;90.40;;;43.93;;
15082;SDS011;7640;53.116;6.878;2023-04-23T03:16:29;104.83;;;45.37;;
15082;SDS011;7640;53.116;6.878;2023-04-23T03:18:58;92.53;;;42.90;;
15082;SDS011;7640;53.116;6.878;2023-04-23T03:21:27;102.67;;;46.93;;
15082;SDS011;7640;53.116;6.878;2023-04-23T03:23:57;106.73;;;47.23;;
15082;SDS011;7640;53.116;6.878;2023-04-23T03:26:25;98.67;;;46.00;;
15082;SDS011;7640;53.116;6.878;2023-04-23T03:28:54;106.00;;;46.00;;
15082;SDS011;7640;53.116;6.878;2023-04-23T03:31:22;106.57;;;46.67;;
15082;SDS011;7640;53.116;6.878;2023-04-23T03:33:51;111.50;;;49.33;;
15082;SDS011;7640;53.116;6.878;2023-04-23T03:36:20;129.13;;;53.20;;
15082;SDS011;7640;53.116;6.878;2023-04-23T03:38:48;132.10;;;53.00;;
15082;SDS011;7640;53.116;6.878;2023-04-23T03:41:19;140.87;;;55.63;;
15082;SDS011;7640;53.116;6.878;2023-04-23T03:43:48;146.80;;;56.23;;
15082;SDS011;7640;53.116;6.878;2023-04-23T03:46:17;118.37;;;50.23;;
15082;SDS011;7640;53.116;6.878;2023-04-23T03:48:46;148.63;;;55.83;;
15082;SDS011;7640;53.116;6.878;2023-04-23T03:51:15;133.40;;;55.13;;
15082;SDS011;7640;53.116;6.878;2023-04-23T03:53:43;152.40;;;57.17;;
15082;SDS011;7640;53.116;6.878;2023-04-23T03:56:12;146.53;;;57.00;;
15082;SDS011;7640;53.116;6.878;2023-04-23T03:58:42;145.57;;;56.53;;
15082;SDS011;7640;53.116;6.878;2023-04-23T04:01:10;150.00;;;57.33;;
15082;SDS011;7640;53.116;6.878;2023-04-23T04:03:39;159.97;;;60.43;;
15082;SDS011;7640;53.116;6.878;2023-04-23T04:06:08;155.40;;;58.53;;
15082;SDS011;7640;53.116;6.878;2023-04-23T04:08:37;155.60;;;58.00;;
15082;SDS011;7640;53.116;6.878;2023-04-23T04:11:05;158.00;;;59.60;;
15082;SDS011;7640;53.116;6.878;2023-04-23T04:13:33;160.93;;;59.17;;
15082;SDS011;7640;53.116;6.878;2023-04-23T04:16:04;165.73;;;58.80;;
15082;SDS011;7640;53.116;6.878;2023-04-23T04:18:33;155.80;;;59.50;;
15082;SDS011;7640;53.116;6.878;2023-04-23T04:21:02;175.50;;;62.97;;
15082;SDS011;7640;53.116;6.878;2023-04-23T04:23:31;166.57;;;62.07;;
15082;SDS011;7640;53.116;6.878;2023-04-23T04:26:00;178.57;;;63.30;;
15082;SDS011;7640;53.116;6.878;2023-04-23T04:28:28;193.80;;;69.23;;
15082;SDS011;7640;53.116;6.878;2023-04-23T04:31:01;193.97;;;67.30;;
15082;SDS011;7640;53.116;6.878;2023-04-23T04:33:32;182.27;;;65.47;;
15082;SDS011;7640;53.116;6.878;2023-04-23T04:36:01;194.37;;;66.50;;
15082;SDS011;7640;53.116;6.878;2023-04-23T04:38:30;198.30;;;70.07;;
15082;SDS011;7640;53.116;6.878;2023-04-23T04:40:59;199.30;;;70.00;;
15082;SDS011;7640;53.116;6.878;2023-04-23T04:43:28;194.27;;;69.10;;
15082;SDS011;7640;53.116;6.878;2023-04-23T04:45:56;185.17;;;66.07;;
15082;SDS011;7640;53.116;6.878;2023-04-23T04:48:26;202.10;;;71.60;;
15082;SDS011;7640;53.116;6.878;2023-04-23T04:50:55;202.57;;;69.10;;
15082;SDS011;7640;53.116;6.878;2023-04-23T04:53:24;214.57;;;72.80;;
15082;SDS011;7640;53.116;6.878;2023-04-23T04:55:53;197.13;;;71.23;;
15082;SDS011;7640;53.116;6.878;2023-04-23T04:58:23;196.90;;;70.23;;
15082;SDS011;7640;53.116;6.878;2023-04-23T05:00:52;197.00;;;69.70;;
15082;SDS011;7640;53.116;6.878;2023-04-23T05:03:21;200.27;;;69.97;;
15082;SDS011;7640;53.116;6.878;2023-04-23T05:05:52;182.97;;;67.87;;
15082;SDS011;7640;53.116;6.878;2023-04-23T05:08:21;206.87;;;71.73;;
15082;SDS011;7640;53.116;6.878;2023-04-23T05:10:51;187.83;;;67.13;;
15082;SDS011;7640;53.116;6.878;2023-04-23T05:13:22;231.03;;;75.00;;
15082;SDS011;7640;53.116;6.878;2023-04-23T05:15:51;201.80;;;70.63;;
15082;SDS011;7640;53.116;6.878;2023-04-23T05:18:19;209.77;;;73.67;;
15082;SDS011;7640;53.116;6.878;2023-04-23T05:20:48;210.73;;;73.30;;
15082;SDS011;7640;53.116;6.878;2023-04-23T05:23:18;218.63;;;74.77;;
15082;SDS011;7640;53.116;6.878;2023-04-23T05:25:47;212.37;;;76.13;;
15082;SDS011;7640;53.116;6.878;2023-04-23T05:28:19;197.60;;;70.23;;
15082;SDS011;7640;53.116;6.878;2023-04-23T05:30:50;187.37;;;70.13;;
15082;SDS011;7640;53.116;6.878;2023-04-23T05:33:23;189.20;;;71.30;;
15082;SDS011;7640;53.116;6.878;2023-04-23T05:36:01;197.10;;;74.47;;
15082;SDS011;7640;53.116;6.878;2023-04-23T05:38:32;196.57;;;71.23;;
15082;SDS011;7640;53.116;6.878;2023-04-23T05:41:00;183.83;;;68.87;;
15082;SDS011;7640;53.116;6.878;2023-04-23T05:43:29;190.00;;;73.30;;
15082;SDS011;7640;53.116;6.878;2023-04-23T05:45:57;193.90;;;74.63;;
15082;SDS011;7640;53.116;6.878;2023-04-23T05:48:26;184.17;;;70.47;;
15082;SDS011;7640;53.116;6.878;2023-04-23T05:50:56;179.40;;;70.07;;
15082;SDS011;7640;53.116;6.878;2023-04-23T05:53:25;170.17;;;69.57;;
15082;SDS011;7640;53.116;6.878;2023-04-23T05:55:56;177.07;;;72.40;;
15082;SDS011;7640;53.116;6.878;2023-04-23T05:58:24;187.43;;;73.03;;
15082;SDS011;7640;53.116;6.878;2023-04-23T06:00:53;178.27;;;70.33;;
15082;SDS011;7640;53.116;6.878;2023-04-23T06:03:22;177.37;;;71.67;;
15082;SDS011;7640;53.116;6.878;2023-04-23T06:05:52;186.73;;;71.93;;
15082;SDS011;7640;53.116;6.878;2023-04-23T06:08:21;180.23;;;68.47;;
15082;SDS011;7640;53.116;6.878;2023-04-23T06:10:52;169.90;;;68.83;;
15082;SDS011;7640;53.116;6.878;2023-04-23T06:13:22;172.00;;;70.67;;
15082;SDS011;7640;53.116;6.878;2023-04-23T06:15:53;179.80;;;70.33;;
15082;SDS011;7640;53.116;6.878;2023-04-23T06:18:22;166.93;;;69.40;;
15082;SDS011;7640;53.116;6.878;2023-04-23T06:20:52;173.80;;;69.27;;
15082;SDS011;7640;53.116;6.878;2023-04-23T06:23:22;164.73;;;69.23;;
15082;SDS011;7640;53.116;6.878;2023-04-23T06:25:51;164.33;;;67.23;;
15082;SDS011;7640;53.116;6.878;2023-04-23T06:28:19;163.60;;;67.70;;
15082;SDS011;7640;53.116;6.878;2023-04-23T06:30:49;145.33;;;64.63;;
15082;SDS011;7640;53.116;6.878;2023-04-23T06:33:18;143.80;;;63.03;;
15082;SDS011;7640;53.116;6.878;2023-04-23T06:35:47;143.50;;;63.20;;
15082;SDS011;7640;53.116;6.878;2023-04-23T06:38:16;140.40;;;63.20;;
15082;SDS011;7640;53.116;6.878;2023-04-23T06:40:46;139.03;;;61.80;;
15082;SDS011;7640;53.116;6.878;2023-04-23T06:43:15;133.43;;;61.70;;
15082;SDS011;7640;53.116;6.878;2023-04-23T06:45:43;136.00;;;62.10;;
15082;SDS011;7640;53.116;6.878;2023-04-23T06:48:13;134.37;;;59.47;;
15082;SDS011;7640;53.116;6.878;2023-04-23T06:50:43;130.93;;;59.90;;
15082;SDS011;7640;53.116;6.878;2023-04-23T06:53:12;135.87;;;63.30;;
15082;SDS011;7640;53.116;6.878;2023-04-23T06:55:41;128.20;;;59.80;;
15082;SDS011;7640;53.116;6.878;2023-04-23T06:58:09;120.30;;;58.07;;
15082;SDS011;7640;53.116;6.878;2023-04-23T07:00:40;120.33;;;57.00;;
15082;SDS011;7640;53.116;6.878;2023-04-23T07:03:09;118.43;;;57.13;;
15082;SDS011;7640;53.116;6.878;2023-04-23T07:05:39;116.73;;;57.37;;
15082;SDS011;7640;53.116;6.878;2023-04-23T07:08:08;108.07;;;53.57;;
15082;SDS011;7640;53.116;6.878;2023-04-23T07:10:36;108.07;;;54.97;;
15082;SDS011;7640;53.116;6.878;2023-04-23T07:13:04;105.70;;;54.50;;
15082;SDS011;7640;53.116;6.878;2023-04-23T07:15:33;107.87;;;54.43;;
15082;SDS011;7640;53.116;6.878;2023-04-23T07:18:03;97.97;;;50.90;;
15082;SDS011;7640;53.116;6.878;2023-04-23T07:20:32;89.97;;;49.10;;
15082;SDS011;7640;53.116;6.878;2023-04-23T07:23:02;86.00;;;48.20;;
15082;SDS011;7640;53.116;6.878;2023-04-23T07:25:31;84.93;;;48.17;;
15082;SDS011;7640;53.116;6.878;2023-04-23T07:28:00;88.93;;;48.40;;
15082;SDS011;7640;53.116;6.878;2023-04-23T07:30:29;80.90;;;46.63;;
15082;SDS011;7640;53.116;6.878;2023-04-23T07:32:57;70.70;;;43.77;;
15082;SDS011;7640;53.116;6.878;2023-04-23T07:35:26;69.93;;;43.07;;
15082;SDS011;7640;53.116;6.878;2023-04-23T07:37:54;72.20;;;44.13;;
15082;SDS011;7640;53.116;6.878;2023-04-23T07:40:25;65.77;;;41.30;;
15082;SDS011;7640;53.116;6.878;2023-04-23T07:42:53;68.97;;;40.90;;
15082;SDS011;7640;53.116;6.878;2023-04-23T07:45:24;68.77;;;42.47;;
15082;SDS011;7640;53.116;6.878;2023-04-23T07:47:52;63.87;;;40.37;;
15082;SDS011;7640;53.116;6.878;2023-04-23T07:50:21;65.93;;;40.30;;
15082;SDS011;7640;53.116;6.878;2023-04-23T07:52:50;64.97;;;40.70;;
15082;SDS011;7640;53.116;6.878;2023-04-23T07:55:19;62.97;;;38.97;;
15082;SDS011;7640;53.116;6.878;2023-04-23T07:57:49;61.50;;;38.70;;
15082;SDS011;7640;53.116;6.878;2023-04-23T08:00:17;56.67;;;37.63;;
15082;SDS011;7640;53.116;6.878;2023-04-23T08:02:46;56.00;;;37.20;;
15082;SDS011;7640;53.116;6.878;2023-04-23T08:05:15;56.83;;;37.10;;
15082;SDS011;7640;53.116;6.878;2023-04-23T08:07:43;51.27;;;34.80;;
15082;SDS011;7640;53.116;6.878;2023-04-23T08:10:12;50.13;;;34.63;;
15082;SDS011;7640;53.116;6.878;2023-04-23T08:12:40;53.40;;;34.20;;
15082;SDS011;7640;53.116;6.878;2023-04-23T08:15:10;46.53;;;33.10;;
15082;SDS011;7640;53.116;6.878;2023-04-23T08:17:39;48.07;;;33.20;;
15082;SDS011;7640;53.116;6.878;2023-04-23T08:20:08;50.50;;;33.83;;
15082;SDS011;7640;53.116;6.878;2023-04-23T08:22:37;47.50;;;32.50;;
15082;SDS011;7640;53.116;6.878;2023-04-23T08:25:06;46.97;;;32.60;;
15082;SDS011;7640;53.116;6.878;2023-04-23T08:27:36;47.43;;;34.13;;
15082;SDS011;7640;53.116;6.878;2023-04-23T08:30:04;48.73;;;33.40;;
15082;SDS011;7640;53.116;6.878;2023-04-23T08:32:40;48.90;;;32.80;;
15082;SDS011;7640;53.116;6.878;2023-04-23T08:35:09;43.70;;;33.23;;
15082;SDS011;7640;53.116;6.878;2023-04-23T08:37:38;43.27;;;31.90;;
15082;SDS011;7640;53.116;6.878;2023-04-23T08:40:07;43.43;;;31.63;;
15082;SDS011;7640;53.116;6.878;2023-04-23T08:42:37;42.87;;;31.77;;
15082;SDS011;7640;53.116;6.878;2023-04-23T08:45:10;43.20;;;32.00;;
15082;SDS011;7640;53.116;6.878;2023-04-23T08:47:41;43.43;;;31.37;;
15082;SDS011;7640;53.116;6.878;2023-04-23T08:50:10;39.40;;;28.47;;
15082;SDS011;7640;53.116;6.878;2023-04-23T08:52:45;39.87;;;30.90;;
15082;SDS011;7640;53.116;6.878;2023-04-23T08:55:17;39.23;;;29.13;;
15082;SDS011;7640;53.116;6.878;2023-04-23T08:57:46;37.30;;;28.00;;
15082;SDS011;7640;53.116;6.878;2023-04-23T09:00:16;31.93;;;25.53;;
15082;SDS011;7640;53.116;6.878;2023-04-23T09:02:50;34.07;;;26.50;;
15082;SDS011;7640;53.116;6.878;2023-04-23T09:05:20;33.47;;;24.97;;
15082;SDS011;7640;53.116;6.878;2023-04-23T09:07:48;30.63;;;24.23;;
15082;SDS011;7640;53.116;6.878;2023-04-23T09:10:18;28.77;;;21.20;;
15082;SDS011;7640;53.116;6.878;2023-04-23T09:12:47;31.87;;;25.17;;
15082;SDS011;7640;53.116;6.878;2023-04-23T09:15:16;33.97;;;26.20;;
15082;SDS011;7640;53.116;6.878;2023-04-23T09:17:45;29.47;;;23.87;;
15082;SDS011;7640;53.116;6.878;2023-04-23T09:20:16;29.73;;;22.50;;
15082;SDS011;7640;53.116;6.878;2023-04-23T09:22:45;26.83;;;20.40;;
15082;SDS011;7640;53.116;6.878;2023-04-23T09:25:15;29.60;;;21.83;;
15082;SDS011;7640;53.116;6.878;2023-04-23T09:27:45;25.83;;;21.53;;
15082;SDS011;7640;53.116;6.878;2023-04-23T09:30:15;27.70;;;22.47;;
15082;SDS011;7640;53.116;6.878;2023-04-23T09:32:45;27.40;;;22.03;;
15082;SDS011;7640;53.116;6.878;2023-04-23T09:35:17;28.83;;;22.17;;
15082;SDS011;7640;53.116;6.878;2023-04-23T09:37:48;28.03;;;21.47;;
15082;SDS011;7640;53.116;6.878;2023-04-23T09:40:19;27.77;;;21.77;;
15082;SDS011;7640;53.116;6.878;2023-04-23T09:42:51;27.47;;;21.23;;
15082;SDS011;7640;53.116;6.878;2023-04-23T09:45:20;24.47;;;20.33;;
15082;SDS011;7640;53.116;6.878;2023-04-23T09:47:50;22.37;;;18.10;;
15082;SDS011;7640;53.116;6.878;2023-04-23T09:50:31;20.83;;;16.77;;
15082;SDS011;7640;53.116;6.878;2023-04-23T09:53:02;19.40;;;14.60;;
15082;SDS011;7640;53.116;6.878;2023-04-23T09:55:32;18.43;;;14.07;;
15082;SDS011;7640;53.116;6.878;2023-04-23T09:58:04;19.37;;;15.17;;
15082;SDS011;7640;53.116;6.878;2023-04-23T10:00:37;16.10;;;13.70;;
15082;SDS011;7640;53.116;6.878;2023-04-23T10:03:06;16.27;;;13.10;;
15082;SDS011;7640;53.116;6.878;2023-04-23T10:05:40;14.27;;;12.33;;
15082;SDS011;7640;53.116;6.878;2023-04-23T10:08:26;14.47;;;11.83;;
15082;SDS011;7640;53.116;6.878;2023-04-23T10:10:55;17.83;;;12.53;;
15082;SDS011;7640;53.116;6.878;2023-04-23T10:13:44;15.77;;;11.83;;
15082;SDS011;7640;53.116;6.878;2023-04-23T10:16:13;15.20;;;11.87;;
15082;SDS011;7640;53.116;6.878;2023-04-23T10:18:52;15.93;;;11.30;;
15082;SDS011;7640;53.116;6.878;2023-04-23T10:21:33;15.10;;;12.27;;
15082;SDS011;7640;53.116;6.878;2023-04-23T10:24:17;12.70;;;10.40;;
15082;SDS011;7640;53.116;6.878;2023-04-23T10:26:47;13.77;;;10.27;;
15082;SDS011;7640;53.116;6.878;2023-04-23T10:29:18;14.13;;;10.80;;
15082;SDS011;7640;53.116;6.878;2023-04-23T10:31:54;13.77;;;10.80;;
15082;SDS011;7640;53.116;6.878;2023-04-23T10:34:25;11.93;;;9.90;;
15082;SDS011;7640;53.116;6.878;2023-04-23T10:36:57;13.43;;;10.20;;
15082;SDS011;7640;53.116;6.878;2023-04-23T10:39:28;10.73;;;8.63;;
15082;SDS011;7640;53.116;6.878;2023-04-23T10:42:00;11.47;;;8.83;;
15082;SDS011;7640;53.116;6.878;2023-04-23T10:44:32;10.73;;;8.50;;
15082;SDS011;7640;53.116;6.878;2023-04-23T10:47:10;11.23;;;8.77;;
15082;SDS011;7640;53.116;6.878;2023-04-23T10:49:41;12.20;;;8.43;;
15082;SDS011;7640;53.116;6.878;2023-04-23T10:52:13;13.80;;;9.17;;
15082;SDS011;7640;53.116;6.878;2023-04-23T10:54:47;13.17;;;9.43;;
15082;SDS011;7640;53.116;6.878;2023-04-23T10:57:23;11.23;;;8.93;;
15082;SDS011;7640;53.116;6.878;2023-04-23T10:59:53;10.80;;;7.90;;
15082;SDS011;7640;53.116;6.878;2023-04-23T11:02:24;9.70;;;7.30;;
15082;SDS011;7640;53.116;6.878;2023-04-23T11:04:54;7.97;;;6.10;;
15082;SDS011;7640;53.116;6.878;2023-04-23T11:07:29;9.37;;;5.77;;
15082;SDS011;7640;53.116;6.878;2023-04-23T11:09:59;9.43;;;5.67;;
15082;SDS011;7640;53.116;6.878;2023-04-23T11:12:38;7.10;;;5.20;;
15082;SDS011;7640;53.116;6.878;2023-04-23T11:15:10;9.63;;;5.50;;
15082;SDS011;7640;53.116;6.878;2023-04-23T11:17:58;7.33;;;4.87;;
15082;SDS011;7640;53.116;6.878;2023-04-23T11:20:28;6.50;;;5.00;;
15082;SDS011;7640;53.116;6.878;2023-04-23T11:22:58;7.33;;;5.03;;
15082;SDS011;7640;53.116;6.878;2023-04-23T11:25:27;8.27;;;5.10;;
15082;SDS011;7640;53.116;6.878;2023-04-23T11:27:56;8.17;;;5.37;;
15082;SDS011;7640;53.116;6.878;2023-04-23T11:30:25;12.23;;;4.37;;
15082;SDS011;7640;53.116;6.878;2023-04-23T11:32:56;8.67;;;4.37;;
15082;SDS011;7640;53.116;6.878;2023-04-23T11:35:27;5.80;;;4.20;;
15082;SDS011;7640;53.116;6.878;2023-04-23T11:38:08;6.60;;;3.43;;
15082;SDS011;7640;53.116;6.878;2023-04-23T11:40:36;6.10;;;3.37;;
15082;SDS011;7640;53.116;6.878;2023-04-23T11:43:05;6.65;;;3.45;;
15082;SDS011;7640;53.116;6.878;2023-04-23T11:45:35;8.82;;;3.80;;
15082;SDS011;7640;53.116;6.878;2023-04-23T11:48:03;5.23;;;3.53;;
15082;SDS011;7640;53.116;6.878;2023-04-23T11:50:33;7.90;;;3.70;;
15082;SDS011;7640;53.116;6.878;2023-04-23T11:53:03;5.55;;;3.10;;
15082;SDS011;7640;53.116;6.878;2023-04-23T11:55:34;5.68;;;3.15;;
15082;SDS011;7640;53.116;6.878;2023-04-23T11:58:03;6.10;;;3.10;;
15082;SDS011;7640;53.116;6.878;2023-04-23T12:00:31;5.57;;;2.65;;
15082;SDS011;7640;53.116;6.878;2023-04-23T12:03:00;9.45;;;2.70;;
15082;SDS011;7640;53.116;6.878;2023-04-23T12:05:31;6.60;;;2.20;;
15082;SDS011;7640;53.116;6.878;2023-04-23T12:08:05;4.43;;;2.25;;
15082;SDS011;7640;53.116;6.878;2023-04-23T12:10:42;4.55;;;2.65;;
15082;SDS011;7640;53.116;6.878;2023-04-23T12:13:15;4.35;;;2.08;;
15082;SDS011;7640;53.116;6.878;2023-04-23T12:15:46;3.97;;;1.88;;
15082;SDS011;7640;53.116;6.878;2023-04-23T12:18:16;3.75;;;1.70;;
15082;SDS011;7640;53.116;6.878;2023-04-23T12:20:45;3.58;;;1.77;;
15082;SDS011;7640;53.116;6.878;2023-04-23T12:23:13;3.13;;;1.77;;
15082;SDS011;7640;53.116;6.878;2023-04-23T12:25:43;4.32;;;1.90;;
15082;SDS011;7640;53.116;6.878;2023-04-23T12:28:12;4.28;;;2.10;;
15082;SDS011;7640;53.116;6.878;2023-04-23T12:30:43;3.10;;;1.90;;
15082;SDS011;7640;53.116;6.878;2023-04-23T12:33:12;3.60;;;1.75;;
15082;SDS011;7640;53.116;6.878;2023-04-23T12:35:41;3.80;;;1.80;;
15082;SDS011;7640;53.116;6.878;2023-04-23T12:38:20;4.82;;;1.80;;
15082;SDS011;7640;53.116;6.878;2023-04-23T12:40:54;3.85;;;2.13;;
15082;SDS011;7640;53.116;6.878;2023-04-23T12:43:27;3.42;;;1.80;;
15082;SDS011;7640;53.116;6.878;2023-04-23T12:45:55;4.03;;;1.80;;
15082;SDS011;7640;53.116;6.878;2023-04-23T12:48:23;4.10;;;2.08;;
15082;SDS011;7640;53.116;6.878;2023-04-23T12:50:52;3.60;;;1.73;;
15082;SDS011;7640;53.116;6.878;2023-04-23T12:53:21;5.85;;;2.05;;
15082;SDS011;7640;53.116;6.878;2023-04-23T12:55:50;4.38;;;1.90;;
15082;SDS011;7640;53.116;6.878;2023-04-23T12:58:20;5.50;;;2.20;;
15082;SDS011;7640;53.116;6.878;2023-04-23T13:00:48;4.60;;;1.75;;
15082;SDS011;7640;53.116;6.878;2023-04-23T13:03:17;4.22;;;2.42;;
15082;SDS011;7640;53.116;6.878;2023-04-23T13:05:46;3.63;;;2.08;;
15082;SDS011;7640;53.116;6.878;2023-04-23T13:08:15;3.72;;;2.17;;
15082;SDS011;7640;53.116;6.878;2023-04-23T13:10:43;3.90;;;2.15;;
15082;SDS011;7640;53.116;6.878;2023-04-23T13:13:13;3.40;;;1.90;;
15082;SDS011;7640;53.116;6.878;2023-04-23T13:15:42;3.33;;;1.70;;
15082;SDS011;7640;53.116;6.878;2023-04-23T13:18:10;4.95;;;2.05;;
15082;SDS011;7640;53.116;6.878;2023-04-23T13:20:38;3.95;;;1.73;;
15082;SDS011;7640;53.116;6.878;2023-04-23T13:23:07;3.75;;;2.00;;
15082;SDS011;7640;53.116;6.878;2023-04-23T13:25:36;3.72;;;1.98;;
15082;SDS011;7640;53.116;6.878;2023-04-23T13:28:05;3.88;;;2.00;;
15082;SDS011;7640;53.116;6.878;2023-04-23T13:30:35;4.53;;;2.00;;
15082;SDS011;7640;53.116;6.878;2023-04-23T13:33:05;4.78;;;1.92;;
15082;SDS011;7640;53.116;6.878;2023-04-23T13:35:33;5.18;;;2.42;;
15082;SDS011;7640;53.116;6.878;2023-04-23T13:38:03;3.47;;;1.90;;
15082;SDS011;7640;53.116;6.878;2023-04-23T13:40:31;3.15;;;2.10;;
15082;SDS011;7640;53.116;6.878;2023-04-23T13:43:00;3.53;;;2.00;;
15082;SDS011;7640;53.116;6.878;2023-04-23T13:45:29;4.18;;;2.13;;
15082;SDS011;7640;53.116;6.878;2023-04-23T13:47:59;4.70;;;2.05;;
15082;SDS011;7640;53.116;6.878;2023-04-23T13:50:34;5.25;;;2.05;;
15082;SDS011;7640;53.116;6.878;2023-04-23T13:53:03;3.00;;;1.67;;
15082;SDS011;7640;53.116;6.878;2023-04-23T13:55:31;4.70;;;1.85;;
15082;SDS011;7640;53.116;6.878;2023-04-23T13:58:00;3.15;;;1.60;;
15082;SDS011;7640;53.116;6.878;2023-04-23T14:00:29;4.65;;;1.88;;
15082;SDS011;7640;53.116;6.878;2023-04-23T14:02:59;2.78;;;1.65;;
15082;SDS011;7640;53.116;6.878;2023-04-23T14:05:27;3.80;;;1.75;;
15082;SDS011;7640;53.116;6.878;2023-04-23T14:07:57;2.80;;;1.58;;
15082;SDS011;7640;53.116;6.878;2023-04-23T14:10:25;5.72;;;1.65;;
15082;SDS011;7640;53.116;6.878;2023-04-23T14:12:54;4.72;;;1.60;;
15082;SDS011;7640;53.116;6.878;2023-04-23T14:15:23;4.40;;;1.60;;
15082;SDS011;7640;53.116;6.878;2023-04-23T14:17:52;3.92;;;1.83;;
15082;SDS011;7640;53.116;6.878;2023-04-23T14:20:23;3.45;;;1.50;;
15082;SDS011;7640;53.116;6.878;2023-04-23T14:22:54;2.35;;;1.33;;
15082;SDS011;7640;53.116;6.878;2023-04-23T14:25:29;5.57;;;1.60;;
15082;SDS011;7640;53.116;6.878;2023-04-23T14:28:08;6.10;;;2.03;;
15082;SDS011;7640;53.116;6.878;2023-04-23T14:30:55;3.33;;;1.60;;
15082;SDS011;7640;53.116;6.878;2023-04-23T14:33:24;4.53;;;1.80;;
15082;SDS011;7640;53.116;6.878;2023-04-23T14:35:54;4.70;;;1.63;;
15082;SDS011;7640;53.116;6.878;2023-04-23T14:38:23;7.03;;;1.90;;
15082;SDS011;7640;53.116;6.878;2023-04-23T14:40:54;5.53;;;1.92;;
15082;SDS011;7640;53.116;6.878;2023-04-23T14:43:23;4.18;;;1.60;;
15082;SDS011;7640;53.116;6.878;2023-04-23T14:45:52;3.53;;;1.60;;
15082;SDS011;7640;53.116;6.878;2023-04-23T14:48:21;2.67;;;1.50;;
15082;SDS011;7640;53.116;6.878;2023-04-23T14:50:50;3.65;;;1.63;;
15082;SDS011;7640;53.116;6.878;2023-04-23T14:53:20;4.38;;;1.60;;
15082;SDS011;7640;53.116;6.878;2023-04-23T14:55:52;3.28;;;1.63;;